Terminal Aerodrome Forecast
Issued by NWS

Home | Current Version | Previous Version | Text Only | Print | Product List | Glossary On
Versions: 1 2 3 4 5 6 7 8 9 10 11 12 13 14 15 16 17 18 19 20
704
FTUS46 KPDT 171740
TAFALW
TAF
KALW 171740Z 1718/1818 18016G25KT P6SM -RA FEW015 BKN028 OVC035
      TEMPO 1718/1719 3SM RA SCT015 OVC028
     FM171900 21023G33KT P6SM -RA BKN028 OVC035
     FM172200 23025G35KT P6SM -RA BKN030 OVC040
     FM180400 22018G28KT P6SM BKN035 OVC050
     FM181000 21012G20KT P6SM SCT040 BKN060=

USA.gov is the U.S. government's official web portal to all federal, state and local government web resources and services.